Time;durP1;ratioP1;P1;durP2;ratioP2;P2;SDS_P1;SDS_P2;PMS_P1;PMS_P2;Temp;Humidity;BMP_temperature;BMP_pressure;BME280_temperature;BME280_humidity;BME280_pressure;Samples;Min_cycle;Max_cycle;Signal;HPM_P1;HPM_P2
2021/08/04 00:01:40;;;;;;;3.40;1.10;;;;;;;12.42;100.00;100420.72;4994322;28;20030;-81
2021/08/04 00:04:05;;;;;;;3.10;1.30;;;;;;;12.39;100.00;100420.78;4994616;28;20030;-81
2021/08/04 00:06:31;;;;;;;5.13;1.45;;;;;;;12.33;100.00;100417.53;4994048;28;20029;-81
2021/08/04 00:08:58;;;;;;;4.65;1.40;;;;;;;12.30;100.00;100415.84;4994274;28;20034;-81
2021/08/04 00:11:23;;;;;;;4.82;1.30;;;;;;;12.32;100.00;100419.28;4994076;28;20030;-81
2021/08/04 00:13:49;;;;;;;5.93;1.60;;;;;;;12.41;100.00;100420.78;4993028;28;20045;-81
2021/08/04 00:16:14;;;;;;;4.60;1.40;;;;;;;12.44;100.00;100412.88;4992906;28;20169;-81
2021/08/04 00:18:39;;;;;;;6.20;1.27;;;;;;;12.50;100.00;100406.63;4992799;28;20030;-81
2021/08/04 00:21:05;;;;;;;3.70;1.38;;;;;;;12.54;100.00;100406.50;4994524;28;20026;-81
2021/08/04 00:23:30;;;;;;;5.22;1.45;;;;;;;12.64;100.00;100407.94;4993114;28;20034;-81
2021/08/04 00:25:57;;;;;;;3.83;1.50;;;;;;;12.67;100.00;100404.41;4992940;28;20573;-81
2021/08/04 00:28:22;;;;;;;5.95;1.60;;;;;;;12.72;100.00;100406.88;4994061;28;20023;-81
2021/08/04 00:30:47;;;;;;;4.55;1.20;;;;;;;12.80;100.00;100408.34;4993899;28;20032;-81
2021/08/04 00:33:13;;;;;;;4.35;1.50;;;;;;;12.83;100.00;100407.41;4997977;28;20022;-81
2021/08/04 00:35:38;;;;;;;4.65;1.60;;;;;;;12.83;100.00;100415.19;4997805;28;20073;-81
2021/08/04 00:38:10;;;;;;;6.22;1.30;;;;;;;12.84;100.00;100419.53;4996302;28;20026;-81
2021/08/04 00:40:35;;;;;;;5.20;1.50;;;;;;;12.77;100.00;100420.59;4997913;28;20446;-81
2021/08/04 00:43:01;;;;;;;4.97;1.60;;;;;;;12.76;100.00;100419.75;4996890;28;20026;-81
2021/08/04 00:45:26;;;;;;;5.95;1.30;;;;;;;12.73;100.00;100414.63;4998056;28;20018;-81
2021/08/04 00:47:51;;;;;;;3.10;1.25;;;;;;;12.86;100.00;100420.31;4997653;28;20050;-81
2021/08/04 00:50:16;;;;;;;4.65;1.52;;;;;;;12.91;100.00;100421.03;4996759;28;20491;-81
2021/08/04 00:52:43;;;;;;;6.18;1.50;;;;;;;12.87;100.00;100422.03;4996266;28;20031;-81
2021/08/04 00:55:09;;;;;;;3.78;1.45;;;;;;;12.90;100.00;100416.75;4997554;28;20030;-81
2021/08/04 00:57:34;;;;;;;5.53;1.60;;;;;;;12.78;100.00;100419.72;4996087;28;20109;-81
2021/08/04 00:59:59;;;;;;;4.47;1.50;;;;;;;12.80;100.00;100420.50;4997482;28;20080;-81
2021/08/04 01:02:32;;;;;;;4.68;1.30;;;;;;;12.74;100.00;100415.47;4997294;28;20058;-81
2021/08/04 01:05:13;;;;;;;3.75;1.60;;;;;;;12.78;100.00;100420.56;4997655;28;20109;-81
2021/08/04 01:07:44;;;;;;;3.58;1.52;;;;;;;12.83;100.00;100423.00;4995853;28;20398;-81
2021/08/04 01:10:31;;;;;;;6.15;1.60;;;;;;;12.80;100.00;100425.72;4996227;28;20026;-81
2021/08/04 01:13:09;;;;;;;3.83;1.45;;;;;;;12.82;100.00;100429.13;4997290;28;20030;-81
2021/08/04 01:15:39;;;;;;;4.15;1.35;;;;;;;12.89;100.00;100435.84;4997107;28;20030;-81
2021/08/04 01:18:06;;;;;;;4.03;1.48;;;;;;;12.95;100.00;100437.41;4995715;28;20023;-81
2021/08/04 01:20:32;;;;;;;4.13;1.50;;;;;;;12.98;100.00;100435.56;4995699;28;20058;-81
2021/08/04 01:23:18;;;;;;;4.57;1.55;;;;;;;12.98;100.00;100438.16;4996972;28;20053;-81
2021/08/04 01:25:59;;;;;;;4.75;1.70;;;;;;;12.82;100.00;100437.78;4997052;28;20092;-81
2021/08/04 01:28:40;;;;;;;4.15;1.67;;;;;;;12.78;100.00;100438.78;4995730;28;20018;-81
2021/08/04 01:31:08;;;;;;;3.88;1.30;;;;;;;12.81;100.00;100435.25;4996639;28;20030;-81
2021/08/04 01:33:36;;;;;;;4.20;1.42;;;;;;;12.85;100.00;100439.44;4996796;28;20394;-81
2021/08/04 01:36:02;;;;;;;4.65;1.48;;;;;;;12.85;100.00;100440.28;4995315;28;20032;-81
2021/08/04 01:38:29;;;;;;;3.75;1.40;;;;;;;12.84;100.00;100432.53;4995232;28;20026;-81
2021/08/04 01:40:56;;;;;;;4.70;1.23;;;;;;;12.87;100.00;100433.31;4995367;28;20026;-81
2021/08/04 01:43:24;;;;;;;3.60;1.35;;;;;;;12.92;100.00;100434.91;4995469;28;20109;-82
2021/08/04 01:45:52;;;;;;;3.97;1.60;;;;;;;12.88;100.00;100435.00;4995306;28;20029;-81
2021/08/04 01:48:20;;;;;;;3.90;1.45;;;;;;;12.82;100.00;100434.34;4995071;28;20197;-82
2021/08/04 01:50:46;;;;;;;6.82;1.80;;;;;;;12.79;100.00;100430.06;4995444;28;20434;-82
2021/08/04 01:53:12;;;;;;;5.80;1.80;;;;;;;12.74;100.00;100439.75;4994863;28;20019;-81
2021/08/04 01:55:37;;;;;;;6.20;1.85;;;;;;;12.64;100.00;100436.56;4995059;28;20471;-81
2021/08/04 01:58:03;;;;;;;3.78;1.67;;;;;;;12.78;100.00;100432.72;4994898;28;20391;-81
2021/08/04 02:00:28;;;;;;;4.03;1.42;;;;;;;12.74;100.00;100436.28;4994890;28;20034;-81
2021/08/04 02:02:53;;;;;;;3.38;1.23;;;;;;;12.65;100.00;100421.78;4996406;28;20030;-81
2021/08/04 02:05:19;;;;;;;3.35;1.30;;;;;;;12.66;100.00;100421.78;4994762;28;20026;-81
2021/08/04 02:08:16;;;;;;;6.40;1.77;;;;;;;12.70;100.00;100419.91;4996115;28;20025;-81
2021/08/04 02:10:50;;;;;;;4.80;1.60;;;;;;;12.65;100.00;100416.59;4995212;28;20026;-81
2021/08/04 02:13:21;;;;;;;;;;;;;;;12.59;100.00;100414.16;4996528;28;20098;-81
2021/08/04 02:15:52;;;;;;;3.80;1.50;;;;;;;12.51;100.00;100413.56;4996198;28;19956;-81
2021/08/04 02:18:24;;;;;;;3.28;1.35;;;;;;;12.60;100.00;100419.34;4995605;28;20022;-81
2021/08/04 02:20:50;;;;;;;4.30;1.25;;;;;;;12.64;100.00;100412.28;4995964;28;20367;-81
2021/08/04 02:23:20;;;;;;;4.65;1.60;;;;;;;12.70;100.00;100411.28;4994517;28;20402;-81
2021/08/04 02:25:50;;;;;;;3.67;1.50;;;;;;;12.63;100.00;100411.44;4994553;28;20042;-81
2021/08/04 02:28:29;;;;;;;5.47;1.55;;;;;;;12.61;100.00;100409.78;4994585;28;20018;-81
2021/08/04 02:30:55;;;;;;;3.70;1.60;;;;;;;12.67;100.00;100405.25;4996018;28;20022;-81
2021/08/04 02:33:21;;;;;;;5.90;1.63;;;;;;;12.72;100.00;100412.94;4995231;28;20363;-81
2021/08/04 02:35:47;;;;;;;4.28;1.60;;;;;;;12.70;100.00;100408.66;4995364;28;20394;-81
2021/08/04 02:38:15;;;;;;;5.25;1.73;;;;;;;12.70;100.00;100412.13;4994153;28;20042;-81
2021/08/04 02:40:41;;;;;;;5.18;1.80;;;;;;;12.64;100.00;100407.09;4994154;28;20394;-82
2021/08/04 02:43:09;;;;;;;4.72;1.70;;;;;;;12.66;100.00;100406.16;4994064;28;20121;-82
2021/08/04 02:45:35;;;;;;;3.95;1.50;;;;;;;12.54;100.00;100403.91;4995484;28;20026;-82
2021/08/04 02:48:01;;;;;;;5.25;2.00;;;;;;;12.59;100.00;100402.03;4995232;28;20018;-82
2021/08/04 02:50:28;;;;;;;5.97;1.60;;;;;;;12.60;100.00;100403.72;4995326;28;20027;-82
2021/08/04 02:52:53;;;;;;;4.50;1.67;;;;;;;12.65;100.00;100401.84;4993767;28;20033;-82
2021/08/04 02:55:19;;;;;;;4.00;1.83;;;;;;;12.65;100.00;100396.66;4993582;28;20030;-82
2021/08/04 02:57:44;;;;;;;4.65;1.65;;;;;;;12.63;100.00;100401.03;4995237;28;20018;-82
2021/08/04 03:00:11;;;;;;;3.97;1.60;;;;;;;12.71;100.00;100399.94;4993819;28;20058;-82
2021/08/04 03:02:37;;;;;;;5.88;1.80;;;;;;;12.70;100.00;100404.31;4995077;28;20026;-82
2021/08/04 03:05:03;;;;;;;6.55;1.40;;;;;;;12.75;100.00;100406.78;4995370;28;20395;-82
2021/08/04 03:07:28;;;;;;;4.07;1.30;;;;;;;12.75;100.00;100404.19;4993774;28;20029;-82
2021/08/04 03:09:53;;;;;;;3.03;1.33;;;;;;;12.77;100.00;100407.56;4994940;28;20084;-82
2021/08/04 03:12:19;;;;;;;4.63;1.88;;;;;;;12.80;100.00;100404.88;4993793;28;20030;-82
2021/08/04 03:14:44;;;;;;;4.28;1.55;;;;;;;12.75;100.00;100409.41;4995011;28;20394;-82
2021/08/04 03:17:09;;;;;;;3.75;1.70;;;;;;;12.77;100.00;100411.03;4994738;28;20034;-81
2021/08/04 03:19:34;;;;;;;4.03;1.60;;;;;;;12.87;100.00;100417.69;4995134;28;20045;-82
2021/08/04 03:22:00;;;;;;;5.30;1.90;;;;;;;12.88;100.00;100414.16;4993676;28;20490;-82
2021/08/04 03:24:25;;;;;;;4.35;1.67;;;;;;;12.78;100.00;100422.31;4995227;28;20033;-82
2021/08/04 03:26:50;;;;;;;4.30;1.90;;;;;;;12.77;100.00;100417.97;4994770;28;20049;-82
2021/08/04 03:29:16;;;;;;;6.72;1.88;;;;;;;12.75;100.00;100417.19;4993742;28;20026;-82
2021/08/04 03:31:41;;;;;;;4.80;1.65;;;;;;;12.74;100.00;100415.47;4994624;28;20081;-82
2021/08/04 03:34:06;;;;;;;3.83;1.45;;;;;;;12.67;100.00;100414.81;4993449;28;20030;-82
2021/08/04 03:36:32;;;;;;;4.18;1.65;;;;;;;12.63;100.00;100416.66;4993682;28;20495;-82
2021/08/04 03:38:57;;;;;;;3.53;1.45;;;;;;;12.72;100.00;100414.69;4993216;28;20030;-82
2021/08/04 03:41:22;;;;;;;3.97;1.40;;;;;;;12.73;100.00;100417.22;4994884;28;20057;-82
2021/08/04 03:43:47;;;;;;;5.78;1.55;;;;;;;12.72;100.00;100423.34;4994284;28;20049;-82
2021/08/04 03:46:13;;;;;;;5.20;1.60;;;;;;;12.71;100.00;100421.63;4994249;28;20510;-82
2021/08/04 03:48:38;;;;;;;4.07;1.48;;;;;;;12.64;100.00;100412.28;4994504;28;20022;-82
2021/08/04 03:51:03;;;;;;;5.38;2.03;;;;;;;12.65;100.00;100422.69;4993294;28;20033;-82
2021/08/04 03:53:29;;;;;;;3.75;1.55;;;;;;;12.77;100.00;100420.59;4994790;28;20041;-82
2021/08/04 03:55:54;;;;;;;6.30;1.48;;;;;;;12.75;100.00;100417.19;4994466;28;20022;-81
2021/08/04 03:58:20;;;;;;;4.25;1.50;;;;;;;12.82;100.00;100423.91;4994692;28;20110;-81
2021/08/04 04:00:45;;;;;;;4.03;1.33;;;;;;;12.84;100.00;100422.97;4993328;28;20041;-82
2021/08/04 04:03:11;;;;;;;4.35;1.50;;;;;;;12.79;100.00;100424.84;4993092;28;20022;-82
2021/08/04 04:05:36;;;;;;;5.40;1.63;;;;;;;12.80;100.00;100423.09;4993815;28;20030;-82
2021/08/04 04:08:01;;;;;;;4.38;1.63;;;;;;;12.72;100.00;100423.34;4998636;28;20069;-81
2021/08/04 04:10:27;;;;;;;5.88;1.92;;;;;;;12.72;100.00;100423.34;4998343;28;20513;-81
2021/08/04 04:12:52;;;;;;;4.45;1.98;;;;;;;12.74;100.00;100423.28;4997042;28;20030;-81
2021/08/04 04:15:17;;;;;;;4.57;1.88;;;;;;;12.74;100.00;100425.88;4996903;28;20038;-81
2021/08/04 04:17:42;;;;;;;5.15;1.70;;;;;;;12.74;100.00;100425.88;4996709;28;20089;-81
2021/08/04 04:20:08;;;;;;;4.28;1.75;;;;;;;12.81;100.00;100432.63;4998221;28;20041;-81
2021/08/04 04:22:33;;;;;;;6.15;1.67;;;;;;;12.88;100.00;100427.19;4997001;28;20072;-81
2021/08/04 04:24:59;;;;;;;5.32;1.75;;;;;;;12.90;100.00;100427.16;4996812;28;20030;-81
2021/08/04 04:27:24;;;;;;;5.30;1.70;;;;;;;12.95;100.00;100435.66;4997120;28;20094;-81
2021/08/04 04:29:50;;;;;;;5.57;1.65;;;;;;;12.97;100.00;100443.44;4997978;28;20022;-81
2021/08/04 04:32:15;;;;;;;5.82;2.00;;;;;;;12.81;100.00;100445.66;4996519;28;20084;-81
2021/08/04 04:34:41;;;;;;;4.45;1.80;;;;;;;12.88;100.00;100442.81;4998968;28;20387;-81
2021/08/04 04:37:07;;;;;;;5.47;1.80;;;;;;;12.94;100.00;100439.19;4997441;28;20032;-82
2021/08/04 04:39:33;;;;;;;3.95;1.75;;;;;;;12.98;100.00;100440.78;4996760;28;20036;-82
2021/08/04 04:41:58;;;;;;;4.90;2.20;;;;;;;12.95;100.00;100446.06;4996365;28;20049;-82
2021/08/04 04:44:23;;;;;;;5.47;1.60;;;;;;;13.00;100.00;100443.34;4997780;28;20081;-82
2021/08/04 04:46:49;;;;;;;4.43;1.88;;;;;;;13.07;100.00;100447.47;4997465;28;20030;-82
2021/08/04 04:49:14;;;;;;;5.72;2.05;;;;;;;13.01;100.00;100448.50;4996379;28;20515;-82
2021/08/04 04:51:39;;;;;;;5.22;1.90;;;;;;;13.07;100.00;100450.91;4996137;28;20022;-82
2021/08/04 04:54:04;;;;;;;4.38;1.80;;;;;;;13.20;100.00;100448.78;4997650;28;20066;-82
2021/08/04 04:56:30;;;;;;;7.63;2.03;;;;;;;13.24;100.00;100446.94;4996416;28;20046;-82
2021/08/04 04:58:55;;;;;;;5.05;1.75;;;;;;;13.17;100.00;100455.84;4996464;28;20501;-82
2021/08/04 05:01:21;;;;;;;4.32;1.85;;;;;;;13.25;100.00;100456.50;4997889;28;20037;-82
2021/08/04 05:03:46;;;;;;;5.65;2.13;;;;;;;13.22;100.00;100452.22;4996407;28;20034;-82
2021/08/04 05:06:12;;;;;;;6.25;1.90;;;;;;;13.27;100.00;100452.97;4996301;28;20022;-82
2021/08/04 05:08:37;;;;;;;6.75;2.40;;;;;;;13.39;100.00;100458.66;4997523;28;20045;-82
2021/08/04 05:11:02;;;;;;;5.85;1.80;;;;;;;13.43;100.00;100453.31;4996284;28;20446;-82
2021/08/04 05:13:28;;;;;;;5.22;1.92;;;;;;;13.51;100.00;100456.53;4995828;28;20026;-82
2021/08/04 05:15:53;;;;;;;5.60;2.13;;;;;;;13.53;100.00;100457.34;4996391;28;20034;-82
2021/08/04 05:18:18;;;;;;;4.80;1.95;;;;;;;13.40;100.00;100461.25;4996712;28;20137;-82
2021/08/04 05:20:44;;;;;;;7.45;2.08;;;;;;;13.51;100.00;100453.91;4998470;28;20027;-82
2021/08/04 05:23:09;;;;;;;6.47;2.50;;;;;;;13.63;100.00;100454.44;4995736;28;20546;-82
2021/08/04 05:25:36;;;;;;;7.35;2.70;;;;;;;13.75;100.00;100461.84;4995942;28;20030;-82
2021/08/04 05:28:02;;;;;;;5.53;1.95;;;;;;;13.74;100.00;100455.78;4995639;28;20018;-82
2021/08/04 05:30:27;;;;;;;6.15;2.35;;;;;;;13.81;100.00;100457.28;4997016;28;20026;-82
2021/08/04 05:32:52;;;;;;;5.80;2.20;;;;;;;13.96;100.00;100461.13;4995582;28;20045;-82
2021/08/04 05:35:17;;;;;;;5.53;1.85;;;;;;;13.98;100.00;100456.72;4996262;28;20549;-82
2021/08/04 05:37:43;;;;;;;5.03;2.10;;;;;;;14.08;100.00;100459.88;5008012;23;20043;-82
2021/08/04 05:40:08;;;;;;;8.20;2.50;;;;;;;14.12;100.00;100460.63;4983474;28;20423;-81
2021/08/04 05:42:34;;;;;;;6.78;2.22;;;;;;;14.29;100.00;100466.09;4982021;28;20034;-81
2021/08/04 05:44:59;;;;;;;6.57;2.20;;;;;;;14.34;100.00;100466.78;4982188;28;20105;-81
2021/08/04 05:47:24;;;;;;;8.68;2.67;;;;;;;14.24;100.00;100460.19;4982864;28;20062;-83
2021/08/04 05:49:49;;;;;;;5.65;2.03;;;;;;;14.38;100.00;100471.00;4983868;28;20057;-82
2021/08/04 05:52:15;;;;;;;6.90;2.33;;;;;;;14.52;100.00;100467.06;4983040;28;20373;-81
2021/08/04 05:54:41;;;;;;;5.72;2.38;;;;;;;14.56;100.00;100471.25;4985373;28;20058;-81
2021/08/04 05:57:06;;;;;;;5.22;2.10;;;;;;;14.63;100.00;100468.38;4999214;28;20027;-81
2021/08/04 05:59:31;;;;;;;5.18;1.90;;;;;;;14.68;100.00;100471.66;4998371;28;20034;-82
2021/08/04 06:01:56;;;;;;;5.18;2.13;;;;;;;14.69;100.00;100473.38;4997777;28;20027;-81
2021/08/04 06:04:22;;;;;;;5.45;2.10;;;;;;;14.43;100.00;100479.50;4985774;28;20033;-82
2021/08/04 06:06:48;;;;;;;6.03;2.30;;;;;;;14.45;100.00;100477.69;4981305;28;20130;-81
2021/08/04 06:09:13;;;;;;;5.32;1.95;;;;;;;14.58;100.00;100478.13;4979544;28;20086;-82
2021/08/04 06:11:38;;;;;;;6.07;1.77;;;;;;;14.56;100.00;100479.94;4980942;28;20054;-82
2021/08/04 06:14:03;;;;;;;6.93;3.05;;;;;;;14.50;100.00;100482.75;4979241;28;20030;-82
2021/08/04 06:16:29;;;;;;;6.68;2.00;;;;;;;14.58;100.00;100488.56;4980886;28;20081;-82
2021/08/04 06:18:54;;;;;;;6.43;2.10;;;;;;;14.62;100.00;100484.09;4976870;28;20031;-82
2021/08/04 06:21:20;;;;;;;4.85;1.92;;;;;;;14.61;100.00;100482.41;4979788;28;20041;-82
2021/08/04 06:23:48;;;;;;;5.93;2.03;;;;;;;14.64;100.00;100490.97;4978601;28;20455;-82
2021/08/04 06:26:14;;;;;;;7.40;2.40;;;;;;;14.69;100.00;100494.28;4981302;28;20484;-82
2021/08/04 06:28:39;;;;;;;6.88;2.50;;;;;;;14.76;100.00;100492.28;4977422;28;20092;-82
2021/08/04 06:31:04;;;;;;;7.35;2.30;;;;;;;14.78;100.00;100493.09;4978019;28;20499;-82
2021/08/04 06:33:30;;;;;;;5.18;2.05;;;;;;;14.82;100.00;100494.69;4979203;28;20030;-81
2021/08/04 06:35:55;;;;;;;6.47;2.13;;;;;;;14.82;100.00;100486.84;4979856;28;20114;-81
2021/08/04 06:38:20;;;;;;;5.28;2.47;;;;;;;14.86;100.00;100493.63;4976879;28;20027;-82
2021/08/04 06:40:45;;;;;;;5.22;2.20;;;;;;;14.91;100.00;100490.88;4977561;28;20033;-82
2021/08/04 06:43:11;;;;;;;6.07;2.15;;;;;;;14.95;100.00;100490.69;4978007;28;20026;-81
2021/08/04 06:45:36;;;;;;;6.72;2.13;;;;;;;14.92;100.00;100496.03;4978227;28;20026;-81
2021/08/04 06:48:01;;;;;;;6.53;2.38;;;;;;;15.07;100.00;100498.97;4978987;28;20023;-82
2021/08/04 06:50:29;;;;;;;10.23;2.15;;;;;;;15.06;100.00;100494.69;4977964;28;20034;-81
2021/08/04 06:52:54;;;;;;;7.72;2.20;;;;;;;15.04;100.00;100501.72;4978627;28;20029;-82
2021/08/04 06:55:19;;;;;;;4.72;2.00;;;;;;;15.10;100.00;100496.25;4977623;28;20023;-81
2021/08/04 06:57:44;;;;;;;7.45;2.00;;;;;;;15.13;100.00;100498.75;4976538;28;20019;-82
2021/08/04 07:00:10;;;;;;;6.82;1.73;;;;;;;15.03;100.00;100498.25;4976263;28;20031;-82
2021/08/04 07:02:36;;;;;;;9.13;2.05;;;;;;;15.19;100.00;100499.38;4975393;28;20491;-82
2021/08/04 07:05:01;;;;;;;6.55;2.22;;;;;;;15.27;100.00;100496.47;4975225;28;20059;-83
2021/08/04 07:07:26;;;;;;;7.28;2.17;;;;;;;15.40;100.00;100502.06;4977311;28;20062;-83
2021/08/04 07:09:52;;;;;;;6.32;1.80;;;;;;;15.31;100.00;100503.28;4975837;28;20399;-83
2021/08/04 07:12:17;;;;;;;9.40;2.00;;;;;;;15.33;100.00;100503.19;4974617;28;20029;-83
2021/08/04 07:14:42;;;;;;;9.35;1.90;;;;;;;15.37;100.00;100503.03;4974905;28;20031;-83
2021/08/04 07:17:07;;;;;;;5.32;2.08;;;;;;;15.45;100.00;100507.09;4974760;28;20492;-83
2021/08/04 07:19:33;;;;;;;5.10;2.30;;;;;;;15.51;100.00;100502.47;4974407;28;20030;-83
2021/08/04 07:21:59;;;;;;;5.25;1.90;;;;;;;15.48;100.00;100502.59;4978095;28;20027;-82
2021/08/04 07:24:25;;;;;;;5.50;1.67;;;;;;;15.39;100.00;100503.84;4979975;28;20065;-82
2021/08/04 07:26:50;;;;;;;4.95;1.80;;;;;;;15.38;100.00;100504.72;4980625;28;20085;-82
2021/08/04 07:29:15;;;;;;;7.05;2.50;;;;;;;15.33;100.00;100505.81;4979660;28;20395;-81
2021/08/04 07:31:41;;;;;;;7.40;2.00;;;;;;;15.29;100.00;100505.09;4978459;28;20027;-83
2021/08/04 07:34:06;;;;;;;4.78;1.70;;;;;;;15.29;100.00;100502.47;4979111;28;20454;-83
2021/08/04 07:36:31;;;;;;;5.28;1.90;;;;;;;15.27;100.00;100500.81;4978190;28;20395;-82
2021/08/04 07:38:57;;;;;;;5.40;1.92;;;;;;;15.27;100.00;100509.53;4979119;28;20132;-83
2021/08/04 07:41:22;;;;;;;5.25;1.88;;;;;;;15.36;100.00;100517.03;4979997;28;20019;-83
2021/08/04 07:43:49;;;;;;;6.68;1.92;;;;;;;15.50;100.00;100510.41;4977298;28;20106;-82
2021/08/04 07:46:17;;;;;;;8.93;2.47;;;;;;;15.46;100.00;100514.91;4977760;28;20026;-82
2021/08/04 07:48:43;;;;;;;6.60;1.90;;;;;;;15.59;100.00;100512.66;4977218;28;20019;-82
2021/08/04 07:51:08;;;;;;;5.22;1.50;;;;;;;15.58;100.00;100508.34;4977421;28;20023;-82
2021/08/04 07:53:34;;;;;;;5.90;1.58;;;;;;;15.77;100.00;100509.34;4978701;28;20030;-82
2021/08/04 07:55:59;;;;;;;11.32;1.98;;;;;;;15.96;100.00;100501.56;4977421;28;20030;-82
2021/08/04 07:58:25;;;;;;;6.05;1.50;;;;;;;15.96;100.00;100504.19;4977486;28;20026;-82
2021/08/04 08:00:50;;;;;;;6.20;1.98;;;;;;;16.31;100.00;100505.31;4979085;28;20089;-82
2021/08/04 08:03:16;;;;;;;5.95;1.77;;;;;;;16.42;100.00;100497.00;4979195;28;20479;-82
2021/08/04 08:05:41;;;;;;;4.28;1.33;;;;;;;16.25;100.00;100500.34;4979480;28;20034;-82
2021/08/04 08:08:07;;;;;;;9.25;2.03;;;;;;;16.41;100.00;100507.53;4978300;28;20088;-83
2021/08/04 08:10:36;;;;;;;5.30;1.65;;;;;;;16.73;100.00;100501.75;4979557;28;20022;-82
2021/08/04 08:13:01;;;;;;;5.50;1.38;;;;;;;16.45;100.00;100502.13;4979317;28;20054;-82
2021/08/04 08:15:26;;;;;;;6.90;1.80;;;;;;;16.30;100.00;100510.63;4979566;28;20052;-82
2021/08/04 08:17:52;;;;;;;5.47;1.95;;;;;;;16.42;100.00;100506.63;4979544;28;20454;-83
2021/08/04 08:20:19;;;;;;;7.78;1.55;;;;;;;16.68;100.00;100503.72;4978358;28;20038;-82
2021/08/04 08:22:44;;;;;;;5.85;1.80;;;;;;;16.47;100.00;100505.53;4979917;28;20027;-82
2021/08/04 08:25:14;;;;;;;3.42;1.23;;;;;;;16.43;100.00;100505.72;4979729;28;20026;-82
2021/08/04 08:27:42;;;;;;;6.43;1.73;;;;;;;16.21;100.00;100504.00;4978391;28;20091;-82
2021/08/04 08:30:09;;;;;;;8.00;1.77;;;;;;;16.03;100.00;100510.00;4978157;28;20033;-82
2021/08/04 08:32:34;;;;;;;5.80;1.48;;;;;;;16.09;100.00;100501.91;4978719;28;20039;-82
2021/08/04 08:35:00;;;;;;;5.28;1.60;;;;;;;16.08;100.00;100508.91;4979283;28;20053;-83
2021/08/04 08:37:25;;;;;;;4.60;1.85;;;;;;;16.32;100.00;100509.66;4978278;28;20019;-82
2021/08/04 08:39:50;;;;;;;6.30;1.60;;;;;;;16.56;100.00;100509.47;4978387;28;20031;-82
2021/08/04 08:42:19;;;;;;;6.32;1.60;;;;;;;16.25;100.00;100510.81;4981592;28;20027;-82
2021/08/04 08:44:45;;;;;;;4.05;1.30;;;;;;;16.51;100.00;100503.63;4980898;28;20034;-82
2021/08/04 08:47:12;;;;;;;5.20;1.65;;;;;;;16.39;100.00;100496.28;4980446;28;20046;-83
2021/08/04 08:49:37;;;;;;;5.32;1.70;;;;;;;16.36;100.00;100499.91;4980964;28;20386;-83
2021/08/04 08:52:03;;;;;;;6.88;1.70;;;;;;;16.28;100.00;100509.81;4978376;28;20119;-83
2021/08/04 08:54:28;;;;;;;4.68;1.98;;;;;;;16.33;100.00;100510.50;4981743;28;20037;-83
2021/08/04 08:56:54;;;;;;;4.03;1.52;;;;;;;16.38;100.00;100503.31;4980585;28;20027;-82
2021/08/04 08:59:19;;;;;;;5.90;1.88;;;;;;;16.68;100.00;100505.47;4982249;28;20065;-83
2021/08/04 09:01:46;;;;;;;8.52;2.03;;;;;;;16.77;99.99;100503.31;4982133;28;20472;-82
2021/08/04 09:04:15;;;;;;;5.00;1.42;;;;;;;16.78;100.00;100504.22;4980371;28;20022;-82
2021/08/04 09:06:47;;;;;;;4.97;1.70;;;;;;;16.69;100.00;100508.03;4980858;28;20034;-82
2021/08/04 09:09:14;;;;;;;4.35;1.48;;;;;;;16.72;100.00;100505.28;4980665;28;20026;-83
2021/08/04 09:11:40;;;;;;;5.60;1.67;;;;;;;17.36;97.03;100508.50;4982081;28;20091;-83
2021/08/04 09:14:05;;;;;;;5.72;1.40;;;;;;;17.80;96.48;100509.06;4982591;28;20095;-82
2021/08/04 09:16:33;;;;;;;4.20;1.45;;;;;;;17.73;95.10;100512.84;4981597;28;20023;-82
2021/08/04 09:18:59;;;;;;;7.63;1.80;;;;;;;17.75;94.83;100513.63;4980663;28;20038;-82
2021/08/04 09:21:24;;;;;;;3.85;1.40;;;;;;;18.21;93.09;100511.38;4981129;28;20029;-82
2021/08/04 09:23:51;;;;;;;5.40;1.58;;;;;;;17.97;91.62;100510.81;4982121;28;20023;-82
2021/08/04 09:26:24;;;;;;;4.50;1.45;;;;;;;17.82;90.61;100503.72;4982237;28;20113;-82
2021/08/04 09:28:50;;;;;;;5.57;1.50;;;;;;;18.51;91.56;100495.84;4981000;28;20035;-82
2021/08/04 09:31:16;;;;;;;4.85;1.70;;;;;;;19.25;88.83;100510.31;4980420;28;20399;-83
2021/08/04 09:33:41;;;;;;;5.35;1.70;;;;;;;18.41;87.66;100505.09;4980678;28;20027;-83
2021/08/04 09:36:06;;;;;;;6.07;1.63;;;;;;;18.35;89.27;100500.16;4982790;28;20031;-83
2021/08/04 09:38:32;;;;;;;6.22;1.85;;;;;;;18.81;86.70;100505.66;4980971;28;20105;-83
2021/08/04 09:41:17;;;;;;;4.95;1.50;;;;;;;18.68;88.96;100515.09;4980933;28;20113;-83
2021/08/04 09:43:48;;;;;;;7.72;1.90;;;;;;;18.93;85.28;100515.53;4981289;28;20023;-82
2021/08/04 09:46:24;;;;;;;4.43;1.33;;;;;;;18.99;84.87;100515.19;4982769;28;20034;-82
2021/08/04 09:48:49;;;;;;;4.72;1.40;;;;;;;18.74;88.22;100515.66;4981254;28;20023;-83
2021/08/04 09:51:19;;;;;;;5.47;1.63;;;;;;;18.11;89.07;100507.53;4982532;28;20086;-83
2021/08/04 09:53:49;;;;;;;4.85;1.80;;;;;;;18.17;91.82;100504.59;4982418;28;20026;-82
2021/08/04 09:56:17;;;;;;;5.00;1.73;;;;;;;18.10;91.79;100513.69;4981454;28;20430;-82
2021/08/04 09:58:42;;;;;;;5.25;1.73;;;;;;;17.63;92.05;100501.94;4981430;28;20038;-82
2021/08/04 10:01:11;;;;;;;6.72;1.52;;;;;;;18.22;91.96;100504.34;4981382;28;20023;-83
2021/08/04 10:03:37;;;;;;;4.88;1.60;;;;;;;17.81;94.51;100504.66;4981450;28;20046;-83
2021/08/04 10:06:02;;;;;;;3.83;1.52;;;;;;;18.02;92.81;100508.84;4981845;28;20030;-83
2021/08/04 10:08:28;;;;;;;4.78;1.80;;;;;;;17.81;94.26;100508.13;4983938;28;20050;-83
2021/08/04 10:10:56;;;;;;;5.78;1.50;;;;;;;17.94;93.54;100503.09;4979840;28;20033;-83
2021/08/04 10:13:25;;;;;;;4.30;1.45;;;;;;;18.23;93.30;100498.19;4979771;28;20027;-83
2021/08/04 10:15:54;;;;;;;4.93;2.15;;;;;;;18.31;91.99;100496.00;4980988;28;20086;-83
2021/08/04 10:18:25;;;;;;;4.80;1.50;;;;;;;18.06;92.69;100496.41;4980562;28;20031;-83
2021/08/04 10:20:54;;;;;;;4.03;1.55;;;;;;;18.34;93.02;100491.44;4979342;28;20376;-83
2021/08/04 10:23:20;;;;;;;5.60;1.70;;;;;;;17.77;92.32;100495.22;4979521;28;20027;-83
2021/08/04 10:25:47;;;;;;;5.47;2.15;;;;;;;17.84;91.95;100494.84;4979888;28;20050;-83
2021/08/04 10:28:13;;;;;;;5.57;1.63;;;;;;;18.08;91.06;100495.41;4980745;28;20033;-83
2021/08/04 10:30:40;;;;;;;4.43;1.48;;;;;;;18.46;92.61;100495.22;4980840;28;20035;-83
2021/08/04 10:33:07;;;;;;;4.95;1.67;;;;;;;18.54;91.51;100500.09;4979303;28;20023;-83
2021/08/04 10:35:39;;;;;;;6.32;1.50;;;;;;;18.43;90.45;100500.63;4981801;28;20034;-83
2021/08/04 10:38:09;;;;;;;3.35;1.35;;;;;;;18.89;90.89;100506.13;4980979;28;20085;-83
2021/08/04 10:40:35;;;;;;;4.78;1.80;;;;;;;18.61;88.76;100506.69;4980497;28;20061;-83
2021/08/04 10:43:00;;;;;;;5.93;1.50;;;;;;;19.20;88.10;100507.06;4980928;28;20027;-82
2021/08/04 10:45:28;;;;;;;5.05;1.70;;;;;;;19.03;85.87;100500.13;4979586;28;20034;-82
2021/08/04 10:48:23;;;;;;;8.80;2.28;;;;;;;19.13;87.70;100500.47;4979256;28;20030;-82
2021/08/04 10:51:17;;;;;;;3.88;1.35;;;;;;;20.16;82.78;100495.47;4981418;28;20415;-82
2021/08/04 10:54:01;;;;;;;8.18;1.52;;;;;;;20.06;82.09;100492.56;4979067;28;20026;-83
2021/08/04 10:56:32;;;;;;;5.63;1.73;;;;;;;19.96;80.92;100494.88;4978883;28;20484;-82
2021/08/04 10:59:10;;;;;;;6.43;1.52;;;;;;;20.49;78.61;100487.34;4977227;28;20031;-83
2021/08/04 11:01:43;;;;;;;6.78;2.45;;;;;;;20.02;80.09;100479.66;4977108;28;20034;-82
2021/08/04 11:04:10;;;;;;;3.20;1.17;;;;;;;20.08;77.09;100480.16;4977698;28;20030;-82
2021/08/04 11:07:17;;;;;;;5.97;2.08;;;;;;;19.75;79.03;100472.44;4980619;28;20033;-83
2021/08/04 11:09:46;;;;;;;9.25;1.83;;;;;;;19.88;81.28;100480.47;4981633;28;20023;-82
2021/08/04 11:12:13;;;;;;;5.20;1.88;;;;;;;19.59;79.56;100479.50;4979378;28;20090;-81
2021/08/04 11:14:50;;;;;;;5.15;2.03;;;;;;;19.67;79.34;100474.66;4979178;28;20030;-81
2021/08/04 11:17:23;;;;;;;5.05;2.03;;;;;;;19.90;77.94;100473.34;4982170;28;20030;-82
2021/08/04 11:20:02;;;;;;;3.97;1.63;;;;;;;19.55;78.95;100477.03;4983992;28;20035;-82